Skip Navigation LinksHome page > Weather > Current weather Skip Navigation Links

Current Weather

Newark Intl, Newark, N.J.

For information only: do not use for flight planning or navigation.
Latest weather
Observation time Tuesday, September 17, 2019 2:51 AM EDT
Local time Tuesday, September 17, 2019 3:05 AM EDT
Flight conditions Visual Meteorological Conditions
Winds
Wind direction North-Northeast (30°)
Wind speed 8 mph
Visibility 10 mi.
Sky condition
Ceiling 3,700 ft. broken clouds
Cloud layer broken clouds 3,700 ft.
Cloud layer broken clouds 5,500 ft.
Temperature 68°F
Dewpoint 51°F
Altimeter 30.08 in.Hg
Derived measurements
Relative humidity 55%
Density altitude 604 ft.
Sea-level pressure 30.07 in.Hg
Remarks
Automated weather observing station with precipitation discriminator.
METAR KEWR 170651Z 03007KT 10SM BKN037 BKN055 20/11 A3008 RMK AO2 SLP184 T02000106

Settings

Location code

InnerDrive.Weather 4.0.6770.0 Release CLR 4.0.30319.42000
Copyright ©2018 Inner Drive Technology. All rights reserved. Portions Copyright ©1986-2018 David Braverman.

Find weather

Site navigation


Skip Navigation Links

Place info

Page info

PayPal - The safer, easier way to pay online!

Return home.

Copyright ©2019 Inner Drive Technology. Purveyors of fine, hand-crafted computer software. Page printed 2019-09-17T07:05:08 UTC.